Time;durP1;ratioP1;P1;durP2;ratioP2;P2;SDS_P1;SDS_P2;PMS_P1;PMS_P2;Temp;Humidity;BMP_temperature;BMP_pressure;BME280_temperature;BME280_humidity;BME280_pressure;Samples;Min_cycle;Max_cycle;Signal;HPM_P1;HPM_P2
2021/03/21 00:01:50;;;;;;;15.30;3.20;;;;;;;;;;4898385;29;20158;-82
2021/03/21 00:04:17;;;;;;;;;;;;;;;;;;4867076;29;20040;-84
2021/03/21 00:06:44;;;;;;;15.23;4.07;;;;;;;;;;4830827;29;19924;-83
2021/03/21 00:09:12;;;;;;;13.20;2.67;;;;;;;;;;4820715;29;20081;-87
2021/03/21 00:11:40;;;;;;;15.27;3.67;;;;;;;;;;4833168;29;20068;-81
2021/03/21 00:14:10;;;;;;;17.40;3.55;;;;;;;;;;4819685;29;20056;-81
2021/03/21 00:16:36;;;;;;;13.32;3.20;;;;;;;;;;4837953;29;20081;-82
2021/03/21 00:19:05;;;;;;;15.75;3.88;;;;;;;;;;4806898;29;20191;-83
2021/03/21 00:21:33;;;;;;;19.88;4.00;;;;;;;;;;4822195;29;20042;-81
2021/03/21 00:23:59;;;;;;;14.88;3.70;;;;;;;;;;4814039;29;20081;-82
2021/03/21 00:26:25;;;;;;;14.93;3.75;;;;;;;;;;4830558;29;20101;-82
2021/03/21 00:28:54;;;;;;;17.98;3.70;;;;;;;;;;4853702;29;20188;-82
2021/03/21 00:31:23;;;;;;;16.83;3.17;;;;;;;;;;4819424;29;20065;-81
2021/03/21 00:33:50;;;;;;;13.20;3.40;;;;;;;;;;4839319;29;20041;-82
2021/03/21 00:36:18;;;;;;;16.30;4.00;;;;;;;;;;4835114;29;20113;-80
2021/03/21 00:38:55;;;;;;;18.35;4.10;;;;;;;;;;4842843;29;20589;-81
2021/03/21 00:41:26;;;;;;;17.15;3.50;;;;;;;;;;4842965;29;20033;-82
2021/03/21 00:43:57;;;;;;;18.02;3.90;;;;;;;;;;4830692;29;20037;-81
2021/03/21 00:46:25;;;;;;;18.23;3.90;;;;;;;;;;4836861;29;20052;-81
2021/03/21 00:48:53;;;;;;;15.65;3.50;;;;;;;;;;4820521;29;20037;-84
2021/03/21 00:51:21;;;;;;;14.52;3.35;;;;;;;;;;4843135;29;20163;-85
2021/03/21 00:53:50;;;;;;;15.55;3.50;;;;;;;;;;4868279;29;20064;-85
2021/03/21 00:56:40;;;;;;;15.93;3.10;;;;;;;;;;4865284;29;20039;-84
2021/03/21 00:59:09;;;;;;;19.35;3.65;;;;;;;;;;4902860;29;20039;-84
2021/03/21 01:01:36;;;;;;;15.48;3.72;;;;;;;;;;4915091;29;20748;-87
2021/03/21 01:04:06;;;;;;;16.73;4.47;;;;;;;;;;4890809;28;20099;-81
2021/03/21 01:06:53;;;;;;;22.08;3.90;;;;;;;;;;4900815;29;20090;-82
2021/03/21 01:09:21;;;;;;;16.40;3.30;;;;;;;;;;4908202;29;20091;-84
2021/03/21 01:11:50;;;;;;;16.17;3.50;;;;;;;;;;4900007;29;20071;-81
2021/03/21 01:14:18;;;;;;;16.52;3.78;;;;;;;;;;4897425;29;20036;-83
2021/03/21 01:16:46;;;;;;;18.33;5.05;;;;;;;;;;4896074;29;20048;-82
2021/03/21 01:19:23;;;;;;;11.85;2.80;;;;;;;;;;4859408;29;20041;-81
2021/03/21 01:21:54;;;;;;;16.00;4.13;;;;;;;;;;4902746;28;20111;-81
2021/03/21 01:24:21;;;;;;;10.52;2.95;;;;;;;;;;4916254;28;20396;-80
2021/03/21 01:27:02;;;;;;;13.55;3.28;;;;;;;;;;4897735;28;20040;-80
2021/03/21 01:29:32;;;;;;;12.95;3.65;;;;;;;;;;4900075;28;20035;-80
2021/03/21 01:32:00;;;;;;;17.35;3.47;;;;;;;;;;4888352;28;20039;-80
2021/03/21 01:34:27;;;;;;;17.67;3.17;;;;;;;;;;4897106;28;20062;-80
2021/03/21 01:36:54;;;;;;;17.52;3.88;;;;;;;;;;4874720;28;20046;-80
2021/03/21 01:39:28;;;;;;;17.02;6.18;;;;;;;;;;4853170;29;20100;-80
2021/03/21 01:42:00;;;;;;;13.52;3.50;;;;;;;;;;4866558;29;20028;-83
2021/03/21 01:44:31;;;;;;;12.75;3.30;;;;;;;;;;4900471;28;20043;-81
2021/03/21 01:47:02;;;;;;;14.43;3.40;;;;;;;;;;4916590;28;20030;-81
2021/03/21 01:49:42;;;;;;;13.13;3.10;;;;;;;;;;4903904;28;20047;-83
2021/03/21 01:52:21;;;;;;;12.00;2.75;;;;;;;;;;4905337;28;21696;-82
2021/03/21 01:54:49;;;;;;;15.30;4.30;;;;;;;;;;4886423;28;20035;-83
2021/03/21 01:57:25;;;;;;;14.45;3.08;;;;;;;;;;4916967;28;20039;-82
2021/03/21 01:59:52;;;;;;;22.67;9.75;;;;;;;;;;4897507;28;21485;-80
2021/03/21 02:02:20;;;;;;;14.27;4.55;;;;;;;;;;4891382;28;20043;-80
2021/03/21 02:04:50;;;;;;;20.85;3.53;;;;;;;;;;4895977;28;20051;-82
2021/03/21 02:07:29;;;;;;;16.95;4.07;;;;;;;;;;4873480;29;20530;-81
2021/03/21 02:10:14;;;;;;;19.30;5.13;;;;;;;;;;4902487;28;20046;-82
2021/03/21 02:12:49;;;;;;;33.03;9.88;;;;;;;;;;4911797;28;20086;-80
2021/03/21 02:15:32;;;;;;;14.48;3.08;;;;;;;;;;4914761;28;20050;-80
2021/03/21 02:18:11;;;;;;;17.35;5.75;;;;;;;;;;4916081;28;20454;-82
2021/03/21 02:20:55;;;;;;;12.05;3.03;;;;;;;;;;4903391;28;20061;-81
2021/03/21 02:23:33;;;;;;;11.82;2.80;;;;;;;;;;4907408;28;20055;-81
2021/03/21 02:26:19;;;;;;;15.60;4.97;;;;;;;;;;4914164;28;20027;-82
2021/03/21 02:28:52;;;;;;;12.95;3.08;;;;;;;;;;4897781;28;20057;-81
2021/03/21 02:31:25;;;;;;;12.95;2.83;;;;;;;;;;4908250;28;20035;-81
2021/03/21 02:34:01;;;;;;;13.48;3.20;;;;;;;;;;4906834;28;20721;-82
2021/03/21 02:36:39;;;;;;;16.23;3.67;;;;;;;;;;4886588;29;20035;-81
2021/03/21 02:39:24;;;;;;;15.77;3.70;;;;;;;;;;4886891;28;20031;-81
2021/03/21 02:41:56;;;;;;;10.80;2.47;;;;;;;;;;4889024;29;20114;-81
2021/03/21 02:44:29;;;;;;;17.27;4.82;;;;;;;;;;4900071;28;20137;-82
2021/03/21 02:47:01;;;;;;;26.70;12.98;;;;;;;;;;4903901;28;20027;-82
2021/03/21 02:49:43;;;;;;;14.02;3.30;;;;;;;;;;4924828;28;20040;-83
2021/03/21 02:52:13;;;;;;;15.32;3.33;;;;;;;;;;4892137;28;20108;-82
2021/03/21 02:54:49;;;;;;;15.93;3.70;;;;;;;;;;4901873;28;20127;-82
2021/03/21 02:57:22;;;;;;;15.43;4.45;;;;;;;;;;4901908;28;20036;-82
2021/03/21 02:59:49;;;;;;;16.58;3.92;;;;;;;;;;4886061;29;20044;-81
2021/03/21 03:02:18;;;;;;;18.23;3.65;;;;;;;;;;4893225;28;20038;-81
2021/03/21 03:04:52;;;;;;;11.07;3.15;;;;;;;;;;4895522;28;20051;-81
2021/03/21 03:07:20;;;;;;;11.88;3.00;;;;;;;;;;4910564;28;20946;-81
2021/03/21 03:09:50;;;;;;;17.33;3.03;;;;;;;;;;4887227;29;20055;-81
2021/03/21 03:12:21;;;;;;;18.15;3.35;;;;;;;;;;4846563;29;20047;-81
2021/03/21 03:14:47;;;;;;;13.70;3.28;;;;;;;;;;4891672;29;20113;-82
2021/03/21 03:17:19;;;;;;;20.48;3.85;;;;;;;;;;4881990;29;20612;-79
2021/03/21 03:20:05;;;;;;;14.50;3.15;;;;;;;;;;4857425;29;20496;-80
2021/03/21 03:22:42;;;;;;;14.90;3.00;;;;;;;;;;4877771;29;20138;-80
2021/03/21 03:25:21;;;;;;;16.20;3.47;;;;;;;;;;4858327;29;20127;-80
2021/03/21 03:28:06;;;;;;;14.75;3.08;;;;;;;;;;4880764;29;20033;-79
2021/03/21 03:30:53;;;;;;;14.23;3.13;;;;;;;;;;4882152;29;20092;-80
2021/03/21 03:33:22;;;;;;;15.45;3.95;;;;;;;;;;4879105;29;20032;-81
2021/03/21 03:35:49;;;;;;;10.73;2.80;;;;;;;;;;4881618;29;20167;-82
2021/03/21 03:38:17;;;;;;;14.45;3.28;;;;;;;;;;4893965;29;20043;-81
2021/03/21 03:40:45;;;;;;;11.55;2.65;;;;;;;;;;4895586;29;20036;-80
2021/03/21 03:43:30;;;;;;;12.75;3.10;;;;;;;;;;4823815;29;20138;-81
2021/03/21 03:46:20;;;;;;;14.70;3.08;;;;;;;;;;4890311;29;20047;-82
2021/03/21 03:48:59;;;;;;;14.45;3.67;;;;;;;;;;4858973;29;20130;-82
2021/03/21 03:51:45;;;;;;;13.18;3.13;;;;;;;;;;4892809;29;20038;-81
2021/03/21 03:54:27;;;;;;;15.50;3.55;;;;;;;;;;4874535;29;20040;-81
2021/03/21 03:57:03;;;;;;;14.20;3.65;;;;;;;;;;4884511;29;20055;-82
2021/03/21 03:59:50;;;;;;;13.00;2.80;;;;;;;;;;4885499;28;20152;-81
2021/03/21 04:02:23;;;;;;;16.50;4.30;;;;;;;;;;4903166;28;20476;-81
2021/03/21 04:05:07;;;;;;;19.20;3.40;;;;;;;;;;4905973;28;20046;-82
2021/03/21 04:07:52;;;;;;;13.90;2.83;;;;;;;;;;4881573;28;20051;-81
2021/03/21 04:10:28;;;;;;;17.10;3.30;;;;;;;;;;4868271;29;20171;-82
2021/03/21 04:13:14;;;;;;;16.48;2.70;;;;;;;;;;4894522;28;20040;-81
2021/03/21 04:15:47;;;;;;;17.38;3.55;;;;;;;;;;4895469;28;20059;-81
2021/03/21 04:18:28;;;;;;;14.00;2.70;;;;;;;;;;4879071;28;20310;-81
2021/03/21 04:20:59;;;;;;;14.55;2.92;;;;;;;;;;4904315;28;20051;-81
2021/03/21 04:23:45;;;;;;;14.68;3.22;;;;;;;;;;4892673;28;20600;-81
2021/03/21 04:26:17;;;;;;;14.48;3.33;;;;;;;;;;4902335;29;20102;-80
2021/03/21 04:29:07;;;;;;;16.25;3.13;;;;;;;;;;4888470;29;20355;-81
2021/03/21 04:31:36;;;;;;;15.07;3.03;;;;;;;;;;4875520;29;20032;-81
2021/03/21 04:34:06;;;;;;;16.52;3.33;;;;;;;;;;4879536;29;23205;-81
2021/03/21 04:36:46;;;;;;;17.42;3.20;;;;;;;;;;4897457;28;20786;-81
2021/03/21 04:39:18;;;;;;;13.80;3.28;;;;;;;;;;4898760;29;20622;-81
2021/03/21 04:41:51;;;;;;;16.17;3.15;;;;;;;;;;4904008;29;20040;-81
2021/03/21 04:44:24;;;;;;;15.70;3.45;;;;;;;;;;4883238;29;20544;-82
2021/03/21 04:47:22;;;;;;;12.32;2.95;;;;;;;;;;4900438;29;20028;-81
2021/03/21 04:49:55;;;;;;;16.98;3.08;;;;;;;;;;4832249;29;20049;-81
2021/03/21 04:52:44;;;;;;;13.63;2.90;;;;;;;;;;4793663;29;20042;-81
2021/03/21 04:55:35;;;;;;;11.52;2.42;;;;;;;;;;4827637;29;20052;-81
2021/03/21 04:58:05;;;;;;;16.10;3.45;;;;;;;;;;4796168;29;20034;-81
2021/03/21 05:00:35;;;;;;;14.13;2.78;;;;;;;;;;4764314;29;20035;-81
2021/03/21 05:03:08;;;;;;;14.40;2.88;;;;;;;;;;4763851;29;20049;-79
2021/03/21 05:05:41;;;;;;;19.08;3.80;;;;;;;;;;4789739;29;20872;-80
2021/03/21 05:08:14;;;;;;;14.15;2.58;;;;;;;;;;4785471;29;20038;-80
2021/03/21 05:10:47;;;;;;;15.52;2.88;;;;;;;;;;4766015;29;20121;-80
2021/03/21 05:13:36;;;;;;;14.10;3.17;;;;;;;;;;4768918;29;20050;-80
2021/03/21 05:16:05;;;;;;;18.25;3.47;;;;;;;;;;4800391;29;20069;-80
2021/03/21 05:18:47;;;;;;;15.23;3.60;;;;;;;;;;4803313;29;20384;-80
2021/03/21 05:21:20;;;;;;;12.60;2.90;;;;;;;;;;4763620;29;20042;-80
2021/03/21 05:23:59;;;;;;;17.00;3.60;;;;;;;;;;4784252;29;20199;-80
2021/03/21 05:26:32;;;;;;;17.67;3.42;;;;;;;;;;4806480;29;20037;-80
2021/03/21 05:29:03;;;;;;;15.15;2.90;;;;;;;;;;4823523;29;20078;-79
2021/03/21 05:31:31;;;;;;;14.35;3.55;;;;;;;;;;4818957;29;20042;-80
2021/03/21 05:33:58;;;;;;;14.30;3.38;;;;;;;;;;4821326;29;20067;-80
2021/03/21 05:36:39;;;;;;;14.68;3.10;;;;;;;;;;4889891;29;20724;-80
2021/03/21 05:39:20;;;;;;;14.88;3.08;;;;;;;;;;4872431;29;20035;-80
2021/03/21 05:42:01;;;;;;;13.63;3.42;;;;;;;;;;4888314;29;20090;-80
2021/03/21 05:44:46;;;;;;;20.05;3.67;;;;;;;;;;4900426;29;20720;-80
2021/03/21 05:47:19;;;;;;;17.33;3.47;;;;;;;;;;4900400;29;20172;-82
2021/03/21 05:49:51;;;;;;;14.38;3.47;;;;;;;;;;4884853;29;20055;-80
2021/03/21 05:52:36;;;;;;;14.57;3.53;;;;;;;;;;4903978;29;20119;-80
2021/03/21 05:55:20;;;;;;;15.13;3.30;;;;;;;;;;4894865;29;20134;-80
2021/03/21 05:57:47;;;;;;;13.98;3.28;;;;;;;;;;4884615;29;20711;-79
2021/03/21 06:00:20;;;;;;;14.88;2.97;;;;;;;;;;4879732;29;20036;-79
2021/03/21 06:03:05;;;;;;;17.83;3.13;;;;;;;;;;4905128;29;20036;-80
2021/03/21 06:05:51;;;;;;;14.98;3.00;;;;;;;;;;4903327;29;20554;-80
2021/03/21 06:08:37;;;;;;;13.60;3.03;;;;;;;;;;4889687;29;20036;-79
2021/03/21 06:11:22;;;;;;;11.25;2.63;;;;;;;;;;4880856;29;20147;-80
2021/03/21 06:14:04;;;;;;;13.43;2.88;;;;;;;;;;4864078;29;20043;-81
2021/03/21 06:16:50;;;;;;;14.55;2.80;;;;;;;;;;4876068;28;20044;-81
2021/03/21 06:19:19;;;;;;;13.75;3.05;;;;;;;;;;4881303;29;20036;-81
2021/03/21 06:21:53;;;;;;;16.10;3.40;;;;;;;;;;4851312;29;20131;-82
2021/03/21 06:24:37;;;;;;;14.77;3.40;;;;;;;;;;4885683;29;20107;-81
2021/03/21 06:27:05;;;;;;;14.63;3.50;;;;;;;;;;4868408;29;20134;-80
2021/03/21 06:29:50;;;;;;;13.07;3.20;;;;;;;;;;4871124;29;20047;-81
2021/03/21 06:32:44;;;;;;;13.15;3.13;;;;;;;;;;4892861;29;20118;-80
2021/03/21 06:35:18;;;;;;;14.88;2.88;;;;;;;;;;4907498;28;20040;-81
2021/03/21 06:38:13;;;;;;;15.70;3.13;;;;;;;;;;4904653;29;20416;-80
2021/03/21 06:40:51;;;;;;;14.35;3.25;;;;;;;;;;4888588;29;20036;-81
2021/03/21 06:43:36;;;;;;;11.75;2.85;;;;;;;;;;4881396;29;20076;-81
2021/03/21 06:46:09;;;;;;;18.08;3.55;;;;;;;;;;4883908;29;20040;-82
2021/03/21 06:48:51;;;;;;;12.48;3.13;;;;;;;;;;4898063;29;20043;-79
2021/03/21 06:51:22;;;;;;;14.77;3.65;;;;;;;;;;4880048;29;20075;-82
2021/03/21 06:54:17;;;;;;;16.88;3.20;;;;;;;;;;4886548;29;20076;-81
2021/03/21 06:57:04;;;;;;;11.88;2.75;;;;;;;;;;4897693;29;20531;-81
2021/03/21 06:59:49;;;;;;;15.98;3.70;;;;;;;;;;4893469;29;20055;-80
2021/03/21 07:02:16;;;;;;;14.73;3.20;;;;;;;;;;4878998;29;20023;-79
2021/03/21 07:04:58;;;;;;;14.82;3.40;;;;;;;;;;4904854;29;20099;-79
2021/03/21 07:07:43;;;;;;;14.57;3.03;;;;;;;;;;4902279;29;20048;-81
2021/03/21 07:10:28;;;;;;;12.35;2.83;;;;;;;;;;4879399;29;21231;-81
2021/03/21 07:13:14;;;;;;;11.80;3.03;;;;;;;;;;4894710;29;20047;-81
2021/03/21 07:15:59;;;;;;;12.18;2.83;;;;;;;;;;4893851;29;20057;-81
2021/03/21 07:18:35;;;;;;;14.43;3.55;;;;;;;;;;4900071;29;20063;-80
2021/03/21 07:21:04;;;;;;;12.80;2.93;;;;;;;;;;4903984;28;20604;-80
2021/03/21 07:23:41;;;;;;;15.70;3.28;;;;;;;;;;4900583;29;20063;-80
2021/03/21 07:26:20;;;;;;;12.32;3.10;;;;;;;;;;4895873;29;20020;-81
2021/03/21 07:28:56;;;;;;;13.88;2.90;;;;;;;;;;4901799;29;20127;-81
2021/03/21 07:31:38;;;;;;;11.45;2.75;;;;;;;;;;4900920;29;20047;-81
2021/03/21 07:34:25;;;;;;;11.20;2.80;;;;;;;;;;4895522;29;20120;-80
2021/03/21 07:37:15;;;;;;;14.03;3.07;;;;;;;;;;4899794;29;20420;-81
2021/03/21 07:40:00;;;;;;;12.95;3.03;;;;;;;;;;4862390;29;20955;-80
2021/03/21 07:42:36;;;;;;;15.48;2.97;;;;;;;;;;4833727;29;20045;-81
2021/03/21 07:45:22;;;;;;;10.63;2.50;;;;;;;;;;4836231;29;20048;-80
2021/03/21 07:48:09;;;;;;;11.48;2.58;;;;;;;;;;4862107;29;20041;-80
2021/03/21 07:50:35;;;;;;;14.27;2.70;;;;;;;;;;4854177;29;21115;-81
2021/03/21 07:53:17;;;;;;;14.13;3.00;;;;;;;;;;4851220;29;20032;-82
2021/03/21 07:55:50;;;;;;;11.65;2.63;;;;;;;;;;4817023;29;20072;-82
2021/03/21 07:58:36;;;;;;;13.05;2.92;;;;;;;;;;4845868;29;20124;-81
2021/03/21 08:01:05;;;;;;;13.13;2.50;;;;;;;;;;4837574;29;20228;-82
2021/03/21 08:03:52;;;;;;;12.60;2.97;;;;;;;;;;4858764;29;20094;-81
2021/03/21 08:06:37;;;;;;;11.10;2.88;;;;;;;;;;4834452;29;20128;-81
2021/03/21 08:09:28;;;;;;;14.68;4.13;;;;;;;;;;4827389;29;20045;-82
2021/03/21 08:12:14;;;;;;;11.82;3.40;;;;;;;;;;4836639;29;20048;-81
2021/03/21 08:15:06;;;;;;;13.10;3.40;;;;;;;;;;4845883;29;20144;-81
2021/03/21 08:17:39;;;;;;;12.55;3.30;;;;;;;;;;4871112;29;20040;-84
2021/03/21 08:20:25;;;;;;;16.45;3.72;;;;;;;;;;4890198;29;20038;-85
2021/03/21 08:22:58;;;;;;;11.15;3.05;;;;;;;;;;4875466;29;20594;-84
2021/03/21 08:25:30;;;;;;;15.90;3.13;;;;;;;;;;4892380;29;20087;-84
2021/03/21 08:27:57;;;;;;;14.15;3.72;;;;;;;;;;4884039;29;20068;-85
2021/03/21 08:30:26;;;;;;;14.68;4.60;;;;;;;;;;4879187;29;20044;-85
2021/03/21 08:32:59;;;;;;;17.20;3.20;;;;;;;;;;4880618;29;20044;-85
2021/03/21 08:35:36;;;;;;;15.88;3.58;;;;;;;;;;4869425;29;20523;-85
2021/03/21 08:38:24;;;;;;;13.35;3.80;;;;;;;;;;4884661;29;20031;-84
2021/03/21 08:41:00;;;;;;;11.85;3.50;;;;;;;;;;4870399;29;20134;-83
2021/03/21 08:43:29;;;;;;;11.85;3.20;;;;;;;;;;4887545;29;20036;-84
2021/03/21 08:46:01;;;;;;;13.13;3.08;;;;;;;;;;4890282;29;20058;-85
2021/03/21 08:48:36;;;;;;;14.38;3.70;;;;;;;;;;4874578;29;20079;-84
2021/03/21 08:51:16;;;;;;;12.57;3.13;;;;;;;;;;4854927;29;20060;-85
2021/03/21 08:53:42;;;;;;;16.15;3.30;;;;;;;;;;4876451;29;20579;-84
2021/03/21 08:56:29;;;;;;;15.30;3.47;;;;;;;;;;4892767;29;20037;-84
2021/03/21 08:59:15;;;;;;;14.25;3.33;;;;;;;;;;4894539;29;20049;-85
2021/03/21 09:01:42;;;;;;;14.00;3.65;;;;;;;;;;4884266;29;20126;-85
2021/03/21 09:04:21;;;;;;;16.67;3.97;;;;;;;;;;4903379;29;20039;-84
2021/03/21 09:06:52;;;;;;;13.00;3.50;;;;;;;;;;4888613;29;20047;-84
2021/03/21 09:09:23;;;;;;;14.35;2.92;;;;;;;;;;4888924;29;20469;-84
2021/03/21 09:12:00;;;;;;;14.52;3.30;;;;;;;;;;4887847;29;20127;-82
2021/03/21 09:14:35;;;;;;;16.13;3.42;;;;;;;;;;4890963;29;20507;-85
2021/03/21 09:17:02;;;;;;;14.57;3.60;;;;;;;;;;4905244;29;20036;-84
2021/03/21 09:19:32;;;;;;;15.30;3.35;;;;;;;;;;4871611;29;20087;-84
2021/03/21 09:22:00;;;;;;;15.40;3.58;;;;;;;;;;4868316;29;20050;-83
2021/03/21 09:24:36;;;;;;;13.23;3.15;;;;;;;;;;4893585;29;20055;-83
2021/03/21 09:27:22;;;;;;;13.05;3.22;;;;;;;;;;4887179;29;20045;-84
2021/03/21 09:29:52;;;;;;;13.68;4.00;;;;;;;;;;4868085;29;20123;-84
2021/03/21 09:32:34;;;;;;;14.85;4.28;;;;;;;;;;4870573;29;20039;-83
2021/03/21 09:35:21;;;;;;;15.60;4.25;;;;;;;;;;4883359;29;20110;-83
2021/03/21 09:37:48;;;;;;;15.00;3.60;;;;;;;;;;4896868;29;20051;-83
2021/03/21 09:40:17;;;;;;;18.55;3.30;;;;;;;;;;4886402;29;20055;-84
2021/03/21 09:42:51;;;;;;;13.82;3.47;;;;;;;;;;4904753;29;20047;-85
2021/03/21 09:45:19;;;;;;;14.73;3.50;;;;;;;;;;4888225;29;20485;-83
2021/03/21 09:48:00;;;;;;;13.30;3.25;;;;;;;;;;4868362;29;20040;-82
2021/03/21 09:50:45;;;;;;;15.40;3.58;;;;;;;;;;4861513;29;20131;-83
2021/03/21 09:53:30;;;;;;;15.45;3.60;;;;;;;;;;4879389;29;20805;-83
2021/03/21 09:56:00;;;;;;;15.35;4.45;;;;;;;;;;4869157;29;20052;-84
2021/03/21 09:58:35;;;;;;;13.45;4.43;;;;;;;;;;4856251;29;20047;-82
2021/03/21 10:01:20;;;;;;;15.00;3.80;;;;;;;;;;4867982;29;20041;-83
2021/03/21 10:03:51;;;;;;;98.20;60.03;;;;;;;;;;4870219;29;20514;-83
2021/03/21 10:06:38;;;;;;;137.40;89.65;;;;;;;;;;4839811;29;20048;-85
2021/03/21 10:09:10;;;;;;;24.67;12.45;;;;;;;;;;4860546;29;20335;-83
2021/03/21 10:11:47;;;;;;;16.00;7.07;;;;;;;;;;4866360;29;20040;-84
2021/03/21 10:14:30;;;;;;;16.05;6.38;;;;;;;;;;4874611;29;20207;-81
2021/03/21 10:17:01;;;;;;;21.40;10.98;;;;;;;;;;4879668;29;20066;-84
2021/03/21 10:19:53;;;;;;;20.73;9.70;;;;;;;;;;4868831;29;20096;-82
2021/03/21 10:22:34;;;;;;;13.35;4.70;;;;;;;;;;4872770;29;20165;-84
2021/03/21 10:25:02;;;;;;;78.47;62.60;;;;;;;;;;4893493;29;20606;-85
2021/03/21 10:27:36;;;;;;;14.30;5.70;;;;;;;;;;4864935;29;20045;-85
2021/03/21 10:30:22;;;;;;;14.48;5.15;;;;;;;;;;4876694;29;20081;-84
2021/03/21 10:33:12;;;;;;;12.05;3.95;;;;;;;;;;4864956;29;20048;-85
2021/03/21 10:35:50;;;;;;;16.13;8.63;;;;;;;;;;4879471;29;20136;-82
2021/03/21 10:38:35;;;;;;;21.30;10.95;;;;;;;;;;4892356;28;20044;-84
2021/03/21 10:41:04;;;;;;;11.50;3.95;;;;;;;;;;4906754;28;20764;-84
2021/03/21 10:43:39;;;;;;;13.05;5.00;;;;;;;;;;4904037;29;20200;-84
2021/03/21 10:46:09;;;;;;;23.30;11.02;;;;;;;;;;4908506;29;20043;-85
2021/03/21 10:48:58;;;;;;;18.08;7.88;;;;;;;;;;4890362;29;20059;-84
2021/03/21 10:51:45;;;;;;;21.45;8.85;;;;;;;;;;4799021;29;20257;-84
2021/03/21 10:54:24;;;;;;;13.80;4.97;;;;;;;;;;4779545;29;20642;-84
2021/03/21 10:57:09;;;;;;;13.32;3.80;;;;;;;;;;4817928;29;20279;-85
2021/03/21 10:59:38;;;;;;;13.60;4.53;;;;;;;;;;4819071;29;20058;-84
2021/03/21 11:02:22;;;;;;;29.52;18.60;;;;;;;;;;4832911;29;20050;-83
2021/03/21 11:04:59;;;;;;;15.52;5.28;;;;;;;;;;4821149;29;20117;-86
2021/03/21 11:07:27;;;;;;;13.27;3.97;;;;;;;;;;4777798;29;20046;-84
2021/03/21 11:10:00;;;;;;;21.08;11.13;;;;;;;;;;4838204;29;20049;-83
2021/03/21 11:12:31;;;;;;;38.15;25.38;;;;;;;;;;4814830;29;20045;-84
2021/03/21 11:15:16;;;;;;;13.02;4.28;;;;;;;;;;4828685;29;20049;-84
2021/03/21 11:17:45;;;;;;;12.60;4.03;;;;;;;;;;4822878;29;20102;-85
2021/03/21 11:20:34;;;;;;;13.43;4.80;;;;;;;;;;4847384;29;20041;-84
2021/03/21 11:23:06;;;;;;;15.05;4.20;;;;;;;;;;4852601;29;20052;-84
2021/03/21 11:25:47;;;;;;;16.05;4.45;;;;;;;;;;4819203;29;20061;-83
2021/03/21 11:28:38;;;;;;;15.75;4.38;;;;;;;;;;4836815;29;20045;-83
2021/03/21 11:31:07;;;;;;;19.73;8.48;;;;;;;;;;4904621;29;20044;-84
2021/03/21 11:33:46;;;;;;;12.65;4.03;;;;;;;;;;4904711;29;20047;-82
2021/03/21 11:36:32;;;;;;;15.75;4.78;;;;;;;;;;4896925;28;20376;-85
2021/03/21 11:39:13;;;;;;;11.65;3.75;;;;;;;;;;4888079;29;20107;-85
2021/03/21 11:41:46;;;;;;;12.70;4.88;;;;;;;;;;4911001;28;20043;-84
2021/03/21 11:44:25;;;;;;;13.52;4.10;;;;;;;;;;4908178;29;20042;-85
2021/03/21 11:46:54;;;;;;;13.07;3.47;;;;;;;;;;4905478;29;20048;-84
2021/03/21 11:49:25;;;;;;;11.63;3.72;;;;;;;;;;4903834;28;20050;-85
2021/03/21 11:52:02;;;;;;;12.07;3.60;;;;;;;;;;4908938;29;20142;-85
2021/03/21 11:54:31;;;;;;;12.70;4.53;;;;;;;;;;4902652;29;20044;-85
2021/03/21 11:57:07;;;;;;;10.75;3.70;;;;;;;;;;4905697;28;20063;-86
2021/03/21 11:59:52;;;;;;;13.45;4.60;;;;;;;;;;4905831;29;20038;-84
2021/03/21 12:02:38;;;;;;;14.85;4.32;;;;;;;;;;4908726;29;20051;-84
2021/03/21 12:05:13;;;;;;;12.63;3.78;;;;;;;;;;4929970;29;20035;-84
2021/03/21 12:07:40;;;;;;;9.13;2.40;;;;;;;;;;4905462;29;20147;-84
2021/03/21 12:10:08;;;;;;;11.75;3.40;;;;;;;;;;4873865;29;20048;-84
2021/03/21 12:12:41;;;;;;;12.65;3.92;;;;;;;;;;4878418;29;20059;-85
2021/03/21 12:15:30;;;;;;;13.65;5.13;;;;;;;;;;4875317;29;20057;-84
2021/03/21 12:18:05;;;;;;;9.95;3.60;;;;;;;;;;4879192;29;20051;-86
2021/03/21 12:20:36;;;;;;;12.68;4.20;;;;;;;;;;4875457;29;20041;-85
2021/03/21 12:23:02;;;;;;;12.60;3.47;;;;;;;;;;4901240;29;20532;-85
2021/03/21 12:25:35;;;;;;;13.60;3.25;;;;;;;;;;4877162;29;20534;-85
2021/03/21 12:28:20;;;;;;;9.52;2.92;;;;;;;;;;4872922;29;20039;-84
2021/03/21 12:30:51;;;;;;;14.68;4.50;;;;;;;;;;4875893;29;20058;-83
2021/03/21 12:33:27;;;;;;;14.50;6.18;;;;;;;;;;4873014;29;20110;-86
2021/03/21 12:36:10;;;;;;;13.63;4.75;;;;;;;;;;4870443;29;20108;-83
2021/03/21 12:38:45;;;;;;;14.05;6.00;;;;;;;;;;4863870;29;20052;-83
2021/03/21 12:41:49;;;;;;;10.70;4.53;;;;;;;;;;4877941;29;21821;-84
2021/03/21 12:44:28;;;;;;;12.25;5.22;;;;;;;;;;4809207;29;20057;-84
2021/03/21 12:47:05;;;;;;;10.65;3.47;;;;;;;;;;4793175;29;20038;-84
2021/03/21 12:49:48;;;;;;;9.82;4.07;;;;;;;;;;4827072;29;20050;-83
2021/03/21 12:52:18;;;;;;;11.48;4.07;;;;;;;;;;4807449;29;20573;-79
2021/03/21 12:54:52;;;;;;;14.63;4.97;;;;;;;;;;4825065;29;20038;-78
2021/03/21 12:57:19;;;;;;;10.93;3.10;;;;;;;;;;4795604;29;20050;-79
2021/03/21 12:59:50;;;;;;;12.82;4.25;;;;;;;;;;4812788;29;20065;-78
2021/03/21 13:02:33;;;;;;;11.73;3.97;;;;;;;;;;4807267;29;20046;-81
2021/03/21 13:05:03;;;;;;;11.57;4.20;;;;;;;;;;4817550;29;20169;-80
2021/03/21 13:07:32;;;;;;;10.55;3.50;;;;;;;;;;4827821;29;20929;-79
2021/03/21 13:10:00;;;;;;;9.13;3.72;;;;;;;;;;4816297;29;20045;-82
2021/03/21 13:12:28;;;;;;;9.45;3.10;;;;;;;;;;4843480;29;20457;-82
2021/03/21 13:14:57;;;;;;;10.98;4.32;;;;;;;;;;4833815;29;20048;-79
2021/03/21 13:17:24;;;;;;;10.70;2.72;;;;;;;;;;4878748;29;20048;-79
2021/03/21 13:19:50;;;;;;;14.07;6.47;;;;;;;;;;4904151;29;20055;-85
2021/03/21 13:22:17;;;;;;;11.88;4.78;;;;;;;;;;4903221;29;20044;-86
2021/03/21 13:24:44;;;;;;;13.07;5.10;;;;;;;;;;4867502;29;20056;-83
2021/03/21 13:27:12;;;;;;;12.40;5.00;;;;;;;;;;4881441;29;20162;-82
2021/03/21 13:29:40;;;;;;;11.85;4.38;;;;;;;;;;4907996;28;20050;-83
2021/03/21 13:32:07;;;;;;;12.40;4.97;;;;;;;;;;4915391;28;20499;-83
2021/03/21 13:34:33;;;;;;;11.02;4.75;;;;;;;;;;4906087;28;20576;-84
2021/03/21 13:37:02;;;;;;;11.07;3.92;;;;;;;;;;4907632;28;20035;-83
2021/03/21 13:39:30;;;;;;;15.18;7.97;;;;;;;;;;4903520;28;20523;-82
2021/03/21 13:42:02;;;;;;;15.18;6.63;;;;;;;;;;4912363;28;20712;-83
2021/03/21 13:44:30;;;;;;;13.43;5.25;;;;;;;;;;4919701;28;20402;-84
2021/03/21 13:46:58;;;;;;;12.02;5.38;;;;;;;;;;4907446;28;20026;-82
2021/03/21 13:49:26;;;;;;;10.80;4.20;;;;;;;;;;4892016;28;20349;-83
2021/03/21 13:51:52;;;;;;;9.02;3.42;;;;;;;;;;4886313;29;20043;-84
2021/03/21 13:54:21;;;;;;;8.32;2.85;;;;;;;;;;4878460;28;20104;-85
2021/03/21 13:56:50;;;;;;;11.38;4.10;;;;;;;;;;4907513;28;20031;-85
2021/03/21 13:59:19;;;;;;;10.77;4.30;;;;;;;;;;4925161;28;20079;-83
2021/03/21 14:01:47;;;;;;;12.90;4.93;;;;;;;;;;4895112;28;20082;-84
2021/03/21 14:04:14;;;;;;;11.63;6.13;;;;;;;;;;4924187;28;20036;-84
2021/03/21 14:06:43;;;;;;;38.25;29.38;;;;;;;;;;4873115;28;20059;-85
2021/03/21 14:09:10;;;;;;;21.10;13.77;;;;;;;;;;4878700;29;20050;-86
2021/03/21 14:11:39;;;;;;;14.55;9.13;;;;;;;;;;4899172;28;20035;-84
2021/03/21 14:14:05;;;;;;;20.20;12.82;;;;;;;;;;4911233;28;20054;-82
2021/03/21 14:16:32;;;;;;;15.95;9.20;;;;;;;;;;4874747;28;20070;-83
2021/03/21 14:19:00;;;;;;;23.55;18.92;;;;;;;;;;4894901;28;20861;-85
2021/03/21 14:21:28;;;;;;;17.95;11.65;;;;;;;;;;4914602;28;20093;-84
2021/03/21 14:23:57;;;;;;;23.65;16.58;;;;;;;;;;4900389;29;20052;-84
2021/03/21 14:26:26;;;;;;;12.73;7.93;;;;;;;;;;4903752;29;20054;-83
2021/03/21 14:28:52;;;;;;;17.05;10.93;;;;;;;;;;4910287;29;20019;-83
2021/03/21 14:31:20;;;;;;;12.23;6.68;;;;;;;;;;4866650;29;20163;-84
2021/03/21 14:33:48;;;;;;;10.82;5.68;;;;;;;;;;4874342;29;20431;-84
2021/03/21 14:36:16;;;;;;;9.95;4.50;;;;;;;;;;4898576;29;20138;-83
2021/03/21 14:38:43;;;;;;;8.68;3.70;;;;;;;;;;4900865;28;20543;-84
2021/03/21 14:41:12;;;;;;;9.23;3.75;;;;;;;;;;4894267;29;22003;-84
2021/03/21 14:43:41;;;;;;;8.40;2.60;;;;;;;;;;4890488;29;20130;-84
2021/03/21 14:46:08;;;;;;;9.77;3.33;;;;;;;;;;4898405;28;20131;-84
2021/03/21 14:48:35;;;;;;;10.27;6.07;;;;;;;;;;4900383;29;20044;-84
2021/03/21 14:51:03;;;;;;;9.57;4.10;;;;;;;;;;4916980;28;20178;-83
2021/03/21 14:53:45;;;;;;;7.60;3.10;;;;;;;;;;4849033;29;20063;-85
2021/03/21 14:56:13;;;;;;;8.43;3.40;;;;;;;;;;4885101;29;20040;-82
2021/03/21 14:58:40;;;;;;;11.85;6.25;;;;;;;;;;4891416;29;20047;-93
2021/03/21 15:01:09;;;;;;;7.88;2.78;;;;;;;;;;4888026;29;20126;-93
2021/03/21 15:03:39;;;;;;;10.50;5.15;;;;;;;;;;4878577;29;20054;-92
2021/03/21 15:06:07;;;;;;;9.93;4.50;;;;;;;;;;4867057;29;20054;-94
2021/03/21 15:08:38;;;;;;;12.63;6.95;;;;;;;;;;4887710;29;20036;-95
2021/03/21 15:11:12;;;;;;;9.63;2.47;;;;;;;;;;4895592;29;20035;-95
2021/03/21 15:13:41;;;;;;;7.15;2.55;;;;;;;;;;4913868;28;20068;-91
2021/03/21 15:16:08;;;;;;;6.93;2.70;;;;;;;;;;4907681;28;20056;-88
2021/03/21 15:18:37;;;;;;;8.30;3.08;;;;;;;;;;4899395;29;20048;-88